Edwall, Washington
Current Conditions -  °F | °C
As of 1:32 PM on Thursday 23 Oct 2014 (Local Time) from KSKA Reporting Station
Light Rain Light Rain  
Wind Chill: 54°   Ceiling: 3400
Heat Index: 54°   Visibility: 10mi
Dew Point: 50°   Wind: 16mph
Humidity: 88%   Direction: 220°SW
Pressure: 29.79"   Gusts: 23mph
Location:  47.5°N, 117.95°W
Report Text: KSKA 232032Z AUTO 22014G20KT 10SM -RA FEW010 SCT014 SCT021 BKN034 OVC060 12/10 A2979 RMK AO2 RAB2008
Loading
Personal Weather Stations






























Interactive Weather Map
Tropical Storm Tracking
New forecast layout! Learn more

10-Day Weather Forecast

Advertisements
Track Severe Weather on mobile